Tuesday, February 20, 2018, 10:46 AM EST
Back to Local

KWRI, Mcguire Air Force Base

Location: Trenton, NJ, United States Lat: 40.017
Local Time: 10:46 AM EST (15:46 GMT) Lon: -74.6
Time Zone: US/Eastern Elev: 134 ft

Show me the last for .
Show Coded

Time T Td Feel RH Dir Speed Gust Alt SLP Vis Weather Sky Remarks
2018-02-20 10:31 61 54 - 77 250° 15 - 30.33 30.33 10 OVC011 None
2018-02-20 10:16 59 55 - 87 260° 12 - 30.33 30.33 10 OVC010 None
2018-02-20 09:56 59 55 - 85 250° 12 - 30.33 30.33 10 OVC008 6-hr Precip Total (10am): 0.00"
2018-02-20 09:16 57 55 - 93 260° 9 - 30.34 30.34 10 OVC008 None
2018-02-20 08:56 57 55 - 91 250° 13 - 30.33 30.33 10 OVC007 1-hr Precip Total: Trace
2018-02-20 08:46 57 55 - 93 260° 12 - 30.33 30.33 10 OVC007 None
2018-02-20 08:42 57 55 - 93 250° 12 - 30.32 30.32 10 -RA OVC007 None
2018-02-20 08:37 57 55 - 93 250° 13 - 30.33 30.33 10 -RA OVC006 None
2018-02-20 07:56 56 55 - 96 250° 13 - 30.32 30.32 10 OVC006 None
2018-02-20 07:36 55 55 - 100 250° 15 - 30.32 30.32 10 OVC006 None
2018-02-20 07:23 55 55 - 100 250° 13 - 30.32 30.32 10 OVC005 None
2018-02-20 07:06 55 55 - 100 250° 13 - 30.31 30.31 8 OVC004 None
2018-02-20 06:56 56 55 - 98 250° 13 - 30.31 30.31 6 BR OVC003 6-hr Min Temp (7am): 53.6°F
6-hr Max Temp (7am): 55.6°F
2018-02-20 06:40 55 55 - 100 240° 13 - 30.29 30.29 5 BR OVC003 None
2018-02-20 06:11 55 55 - 100 240° 12 - 30.29 30.29 3 BR OVC003 None
2018-02-20 05:56 55 55 - 98 230° 12 - 30.29 30.29 2 BR OVC003 None
2018-02-20 05:46 55 55 - 100 240° 9 - 30.29 30.29 2 BR OVC003 None
2018-02-20 05:36 55 55 - 100 240° 13 - 30.29 30.29 3 BR OVC003 None
2018-02-20 05:01 55 55 - 100 240° 13 - 30.28 30.28 4 BR OVC003 None
2018-02-20 04:56 55 55 - 98 240° 13 - 30.28 30.28 5 BR OVC005 None
2018-02-20 04:31 55 54 - 93 240° 9 - 30.28 30.28 10 OVC005 None
2018-02-20 04:16 55 54 - 93 240° 9 - 30.27 30.27 10 OVC006 None
2018-02-20 03:56 55 53 - 94 240° 10 - 30.27 30.27 10 OVC007 None
2018-02-20 03:31 54 54 - 100 230° 10 - 30.27 30.27 10 OVC008 None
2018-02-20 03:06 54 54 - 100 240° 10 - 30.28 30.28 10 OVC007 None
2018-02-20 02:56 54 53 - 96 230° 13 - 30.28 30.28 10 OVC006 None
2018-02-20 02:21 54 54 - 100 240° 9 - 30.29 30.29 9 OVC006 None
2018-02-20 02:06 54 54 - 100 230° 10 - 30.29 30.29 9 OVC005 None
2018-02-20 01:56 54 53 - 98 240° 10 - 30.30 30.30 8 OVC004 None
2018-02-20 01:31 54 54 - 100 240° 9 - 30.29 30.29 9 OVC004 None
2018-02-20 00:56 54 53 - 98 220° 9 - 30.29 30.29 6 BR OVC003 6-hr Precip Total (1am): 0.00"
6-hr Min Temp (1am): 52.0°F
6-hr Max Temp (1am): 53.8°F
2018-02-19 23:56 53 53 - 98 210° 8 - 30.29 30.29 7 OVC003 1-hr Precip Total: Trace
24-hr Min Temp (12am): 27.0°F
24-hr Max Temp (12am): 53.6°F
2018-02-19 23:27 54 52 - 93 230° 7 - 30.30 30.30 4 BR OVC003 None
2018-02-19 23:22 54 52 - 93 220° 8 - 30.30 30.30 3 BR OVC002 None
2018-02-19 23:02 54 52 - 93 210° 8 - 30.31 30.31 2 BR OVC002 None
2018-02-19 22:57 54 52 - 93 210° 9 - 30.31 30.31 3 BR OVC002 None
2018-02-19 22:56 53 52 - 98 210° 8 - 30.31 30.31 3 -RA BR OVC002 1-hr Precip Total: Trace
2018-02-19 22:52 54 52 - 93 210° 8 - 30.31 30.31 3 -RA BR OVC002 None
2018-02-19 22:47 54 52 - 93 210° 8 - 30.31 30.31 3 -RA BR OVC003 None
2018-02-19 22:08 54 52 - 93 190° 6 - 30.31 30.31 5 BR OVC003 None
2018-02-19 21:56 53 53 - 98 210° 8 - 30.31 30.31 6 BR OVC004 None
2018-02-19 21:46 54 52 - 93 210° 8 - 30.31 30.31 9 OVC004 None
2018-02-19 21:21 54 52 - 93 210° 8 - 30.31 30.31 10 OVC005 None
2018-02-19 21:01 54 52 - 93 210° 8 - 30.31 30.31 10 OVC006 None
2018-02-19 20:56 53 52 - 94 210° 8 - 30.31 30.31 10 OVC007 None
2018-02-19 20:11 52 50 - 93 210° 10 - 30.31 30.31 10 OVC007 None
2018-02-19 19:56 52 49 - 88 220° 7 - 30.32 30.32 10 OVC009 None
2018-02-19 19:33 52 48 - 87 200° 8 - 30.32 30.32 10 OVC009 None
2018-02-19 19:18 52 48 - 87 210° 8 - 30.33 30.33 10 BKN010 OVC015 None
2018-02-19 19:16 52 48 - 87 210° 8 - 30.33 30.33 10 OVC013 None
2018-02-19 18:56 52 48 - 85 210° 8 - 30.33 30.33 10 OVC015 6-hr Precip Total (7pm): 0.00"
6-hr Min Temp (7pm): 50.0°F
6-hr Max Temp (7pm): 52.2°F
2018-02-19 18:11 52 48 - 87 180° 5 - 30.32 30.32 10 OVC018 None
2018-02-19 17:56 52 48 - 85 220° 6 - 30.33 30.33 10 OVC023 None
2018-02-19 16:56 51 47 - 88 180° 3 - 30.33 30.33 10 OVC025 1-hr Precip Total: Trace
2018-02-19 16:49 50 46 48 87 180° 5 - 30.33 30.33 10 OVC027 None
2018-02-19 16:16 52 45 - 76 - Calm - 30.35 30.35 10 -DZ FEW020 OVC027 None
2018-02-19 16:11 52 45 - 76 - Calm - 30.35 30.35 10 BKN023 OVC030 None
2018-02-19 15:56 52 45 - 77 210° 3 - 30.35 30.35 10 BKN020 OVC029 None
2018-02-19 15:46 52 45 - 76 210° 3 - 30.35 30.35 10 BKN020 OVC029 None
2018-02-19 14:56 52 44 - 74 200° 6 - 30.35 30.35 10 OVC018 None
2018-02-19 14:26 50 43 47 76 230° 8 - 30.36 30.36 10 OVC018 None
2018-02-19 13:56 51 42 - 73 240° 12 - 30.37 30.37 10 OVC023 None
2018-02-19 13:11 52 41 - 66 220° 12 - 30.39 30.39 10 OVC028 None
2018-02-19 12:56 51 39 - 62 230° 8 - 30.40 30.40 10 BKN031 OVC041 6-hr Min Temp (1pm): 29.1°F
6-hr Max Temp (1pm): 52.3°F
2018-02-19 11:56 50 36 - 57 200° 8 - 30.43 30.43 10 OVC046 None
2018-02-19 10:56 49 37 47 62 190° 5 - 30.46 30.46 10 OVC048 None

Support USWX by starting your Amazon purchase here.